createdAt,value
2022-09-04T00:00:20.617Z,49.38743
2022-09-04T00:05:22.075Z,49.51557
2022-09-04T00:10:23.653Z,50.81637
2022-09-04T00:15:25.746Z,49.65372
2022-09-04T00:20:27.172Z,49.37997
2022-09-04T00:25:28.589Z,50.8791
2022-09-04T00:30:30.085Z,50.86081
2022-09-04T00:35:31.659Z,50.10907
2022-09-04T00:40:33.242Z,51.20605
2022-09-04T00:45:35.038Z,50.8443
2022-09-04T00:50:36.577Z,50.37108
2022-09-04T00:55:38.370Z,50.60381
2022-09-04T01:00:40.297Z,51.38586
2022-09-04T01:05:42.168Z,52.71899
2022-09-04T01:10:45.029Z,53.11253
2022-09-04T01:15:46.733Z,52.72906
2022-09-04T01:20:48.152Z,52.51746
2022-09-04T01:25:49.600Z,52.22328
2022-09-04T01:30:51.115Z,52.12496
2022-09-04T01:35:52.644Z,53.71388
2022-09-04T01:40:54.309Z,54.16658
2022-09-04T01:45:56.103Z,56.72212
2022-09-04T01:50:57.598Z,56.57148
2022-09-04T01:55:59.128Z,58.18834
2022-09-04T02:01:00.971Z,58.27258
2022-09-04T02:06:04.194Z,58.83955
2022-09-04T02:11:05.982Z,58.4801
2022-09-04T02:16:08.008Z,59.94938
2022-09-04T02:21:09.809Z,59.57048
2022-09-04T02:26:11.602Z,59.21787
2022-09-04T02:31:13.670Z,58.78212
2022-09-04T02:36:15.660Z,59.99032
2022-09-04T02:41:17.395Z,60.02927
2022-09-04T02:46:19.499Z,61.40455
2022-09-04T02:51:21.319Z,63.2624
2022-09-04T02:56:23.093Z,61.0758
2022-09-04T03:01:24.919Z,62.39975
2022-09-04T03:06:27.087Z,62.03689
2022-09-04T03:11:28.949Z,61.45205
2022-09-04T03:16:31.290Z,58.50639
2022-09-04T03:21:33.136Z,58.95313
2022-09-04T03:26:35.091Z,60.20139
2022-09-04T03:31:37.107Z,59.24905
2022-09-04T03:36:39.029Z,59.1565
2022-09-04T03:41:41.094Z,60.0799
2022-09-04T03:46:43.467Z,62.67444
2022-09-04T03:51:44.994Z,64.209
2022-09-04T03:56:46.735Z,60.72567
2022-09-04T04:01:48.446Z,60.8257
2022-09-04T04:06:50.006Z,62.98569
2022-09-04T04:11:51.682Z,63.81473
2022-09-04T04:16:56.151Z,61.81572
2022-09-04T04:21:58.214Z,64.02753
2022-09-04T04:27:00.000Z,64.62223
2022-09-04T04:32:01.848Z,64.71029
2022-09-04T04:37:03.497Z,63.35665
2022-09-04T04:42:05.408Z,64.32595
2022-09-04T04:47:07.484Z,65.48434
2022-09-04T04:52:09.274Z,63.82959
2022-09-04T04:57:11.266Z,63.12724
2022-09-04T05:02:13.283Z,63.87711
2022-09-04T05:07:15.178Z,62.62787
2022-09-04T05:12:17.035Z,62.01822
2022-09-04T05:17:19.113Z,61.3403
2022-09-04T05:22:20.903Z,60.82521
2022-09-04T05:27:22.764Z,59.90598
2022-09-04T05:32:24.731Z,59.74406
2022-09-04T05:37:26.547Z,56.41965
2022-09-04T05:42:28.637Z,56.11858
2022-09-04T05:47:30.930Z,53.88617
2022-09-04T05:52:32.732Z,52.83971
2022-09-04T05:57:34.500Z,50.66374
2022-09-04T06:02:36.298Z,51.63377
2022-09-04T06:07:38.308Z,48.43827
2022-09-04T06:12:40.053Z,49.44518
2022-09-04T06:17:42.255Z,47.69027
2022-09-04T06:22:44.154Z,45.84396
2022-09-04T06:27:50.386Z,43.33537
2022-09-04T06:32:51.917Z,41.94516
2022-09-04T06:37:53.576Z,41.66985
2022-09-04T06:42:55.254Z,40.3581
2022-09-04T06:47:56.891Z,39.3533
2022-09-04T06:53:01.080Z,37.99908
2022-09-04T06:58:05.620Z,35.3843
2022-09-04T07:03:07.210Z,35.02541
2022-09-04T07:08:08.675Z,34.49822
2022-09-04T07:13:10.588Z,32.9739
2022-09-04T07:18:12.462Z,32.26397
2022-09-04T07:23:13.865Z,27.15798
2022-09-04T07:28:15.294Z,25.44179
2022-09-04T07:33:16.957Z,25.65736
2022-09-04T07:38:18.483Z,23.51274
2022-09-04T07:43:20.279Z,23.8328
2022-09-04T07:48:22.464Z,23.16604
2022-09-04T07:53:23.947Z,22.99283
2022-09-04T07:58:25.783Z,21.99557
2022-09-04T08:03:27.528Z,20.37161
2022-09-04T08:08:29.208Z,20.13796
2022-09-04T08:13:31.064Z,20.51272
2022-09-04T08:18:32.684Z,19.66205
2022-09-04T08:23:34.410Z,18.94929
2022-09-04T08:28:35.855Z,18.57064
2022-09-04T08:33:37.557Z,17.91617
2022-09-04T08:38:39.001Z,19.10945
2022-09-04T08:43:40.427Z,19.01874
2022-09-04T08:53:52.629Z,17.24562
2022-09-04T08:58:55.403Z,17.89424
2022-09-04T09:03:57.481Z,17.45771
2022-09-04T09:08:59.407Z,18.494
2022-09-04T09:14:01.961Z,17.82734
2022-09-04T09:19:04.033Z,16.23667
2022-09-04T09:24:05.892Z,17.63609
2022-09-04T09:29:07.631Z,16.08217
2022-09-04T09:34:10.327Z,16.53477
2022-09-04T09:39:12.333Z,17.22902
2022-09-04T09:44:14.199Z,15.4234
2022-09-04T09:49:15.944Z,14.98552
2022-09-04T09:54:17.985Z,16.31425
2022-09-04T09:59:19.543Z,14.55048
2022-09-04T10:04:21.426Z,14.42151
2022-09-04T10:09:22.866Z,13.34504
2022-09-04T10:14:25.345Z,13.87433
2022-09-04T10:19:27.289Z,13.57564
2022-09-04T10:24:29.245Z,13.91249
2022-09-04T10:29:31.016Z,14.27838
2022-09-04T10:34:32.863Z,12.82906
2022-09-04T10:39:34.863Z,11.88483
2022-09-04T10:44:36.779Z,12.83532
2022-09-04T10:49:38.763Z,11.79624
2022-09-04T10:54:41.016Z,11.21223
2022-09-04T10:59:45.576Z,11.26581
2022-09-04T11:04:47.146Z,11.44165
2022-09-04T11:09:48.738Z,12.01583
2022-09-04T11:14:50.306Z,11.98907
2022-09-04T11:19:51.740Z,11.96112
2022-09-04T11:24:53.549Z,11.44343
2022-09-04T11:29:55.391Z,12.85277
2022-09-04T11:34:56.842Z,12.29476
2022-09-04T11:39:58.613Z,13.30566
2022-09-04T11:45:00.256Z,12.02652
2022-09-04T11:50:01.746Z,12.21026
2022-09-04T11:55:03.426Z,12.21548
2022-09-04T12:00:05.265Z,12.23023
2022-09-04T12:05:06.948Z,11.06659
2022-09-04T12:10:08.639Z,11.76649
2022-09-04T12:15:10.502Z,12.28757
2022-09-04T12:20:12.148Z,11.32749
2022-09-04T12:25:15.942Z,11.86725
2022-09-04T12:30:17.614Z,10.87029
2022-09-04T12:35:19.274Z,11.02586
2022-09-04T12:40:20.981Z,12.0093
2022-09-04T12:45:22.871Z,11.62637
2022-09-04T12:50:24.569Z,12.12776
2022-09-04T12:55:26.445Z,12.07371
2022-09-04T13:00:42.026Z,11.55202
2022-09-04T13:05:53.388Z,11.8713
2022-09-04T13:10:55.948Z,12.24437
2022-09-04T13:15:57.843Z,12.3171
2022-09-04T13:20:59.702Z,12.54271
2022-09-04T13:26:01.578Z,12.31345
2022-09-04T13:31:03.077Z,11.94162
2022-09-04T13:36:04.803Z,12.70884
2022-09-04T13:41:06.442Z,13.12773
2022-09-04T13:46:08.150Z,13.02584
2022-09-04T13:51:13.614Z,12.88003
2022-09-04T13:56:16.277Z,12.99603
2022-09-04T14:01:18.075Z,13.30451
2022-09-04T14:06:20.163Z,12.97988
2022-09-04T14:11:21.946Z,13.15411
2022-09-04T14:16:23.803Z,13.07746
2022-09-04T14:21:25.595Z,13.49056
2022-09-04T14:26:27.714Z,13.66747
2022-09-04T14:31:32.665Z,13.1468
2022-09-04T14:36:35.746Z,13.18105
2022-09-04T14:41:37.551Z,13.36342
2022-09-04T14:46:39.364Z,14.08586
2022-09-04T14:51:41.375Z,14.04977
2022-09-04T14:56:43.352Z,14.4809
2022-09-04T15:01:45.338Z,14.35858
2022-09-04T15:07:07.759Z,14.75463
2022-09-04T15:12:24.191Z,14.6516
2022-09-04T15:17:26.611Z,14.61922
2022-09-04T15:22:28.489Z,14.658
2022-09-04T15:27:30.409Z,15.29083
2022-09-04T15:32:32.193Z,15.66087
2022-09-04T15:37:33.637Z,15.46443
2022-09-04T15:42:35.074Z,15.70863
2022-09-04T15:47:36.522Z,15.83588
2022-09-04T15:52:37.937Z,16.3892
2022-09-04T15:57:39.833Z,16.84683
2022-09-04T16:02:41.304Z,17.22707
2022-09-04T16:07:43.373Z,17.5977
2022-09-04T16:12:44.810Z,17.35766
2022-09-04T16:17:46.588Z,18.50157
2022-09-04T16:22:48.258Z,18.05024
2022-09-04T16:27:50.160Z,18.43729
2022-09-04T16:32:51.691Z,18.46496
2022-09-04T16:37:53.426Z,18.85141
2022-09-04T16:42:55.315Z,19.174
2022-09-04T16:47:57.183Z,18.88496
2022-09-04T16:53:13.376Z,18.88905
2022-09-04T16:58:16.260Z,18.86995
2022-09-04T17:03:18.049Z,19.23033
2022-09-04T17:08:22.877Z,19.40794
2022-09-04T17:13:27.677Z,19.3828
2022-09-04T17:18:29.976Z,19.83866
2022-09-04T17:28:57.900Z,19.77461
2022-09-04T17:40:42.841Z,19.74885
2022-09-04T17:46:02.590Z,20.25784
2022-09-04T17:51:04.318Z,20.20545
2022-09-04T17:56:06.722Z,20.74859
2022-09-04T18:01:15.376Z,21.07169
2022-09-04T18:06:18.059Z,20.73644
2022-09-04T18:11:20.019Z,20.9005
2022-09-04T18:16:21.572Z,20.59606
2022-09-04T18:21:23.411Z,20.9598
2022-09-04T18:26:24.950Z,20.89683
2022-09-04T18:37:07.811Z,20.97723
2022-09-04T18:50:05.024Z,20.91853
2022-09-04T18:55:43.400Z,21.12714
2022-09-04T19:00:45.414Z,21.66564
2022-09-04T19:05:47.420Z,21.24815
2022-09-04T19:10:49.159Z,21.54168
2022-09-04T19:15:50.809Z,21.63811
2022-09-04T19:20:52.260Z,22.37716
2022-09-04T19:25:55.112Z,22.71831
2022-09-04T19:30:56.865Z,23.08143
2022-09-04T19:35:58.295Z,23.15368
2022-09-04T19:46:19.375Z,23.60895
2022-09-04T19:53:30.487Z,24.53911
2022-09-04T19:58:42.046Z,24.55734
2022-09-04T20:03:46.266Z,25.06445
2022-09-04T20:08:48.248Z,24.93533
2022-09-04T20:13:53.197Z,24.6765
2022-09-04T20:18:54.700Z,25.14092
2022-09-04T20:23:56.609Z,25.25003
2022-09-04T20:28:58.019Z,25.13438
2022-09-04T20:33:59.665Z,25.46228
2022-09-04T20:39:01.413Z,25.55322
2022-09-04T20:44:03.161Z,25.7634
2022-09-04T20:52:48.682Z,25.24801
2022-09-04T21:00:51.575Z,25.71615
2022-09-04T21:08:17.726Z,26.19271
2022-09-04T21:13:19.623Z,26.32895
2022-09-04T21:18:21.380Z,26.65917
2022-09-04T21:23:23.237Z,27.04464
2022-09-04T21:28:25.383Z,26.95704
2022-09-04T21:33:29.942Z,26.56826
2022-09-04T21:38:33.263Z,26.73167
2022-09-04T21:43:35.675Z,26.98092
2022-09-04T21:48:38.110Z,26.97971
2022-09-04T21:53:43.110Z,27.22227
2022-09-04T22:02:44.809Z,27.32516
2022-09-04T22:13:24.663Z,27.97225
2022-09-04T22:18:38.824Z,27.41458
2022-09-04T22:23:40.570Z,27.4004
2022-09-04T22:28:42.482Z,27.15085
2022-09-04T22:33:48.246Z,26.8826
2022-09-04T22:39:18.684Z,26.66001
2022-09-04T22:44:20.143Z,27.41103
2022-09-04T22:49:21.962Z,26.95779
2022-09-04T22:54:23.818Z,27.02645
2022-09-04T22:59:26.854Z,27.06073
2022-09-04T23:04:29.362Z,27.20271
2022-09-04T23:13:47.437Z,27.3911
2022-09-04T23:23:22.611Z,27.8805
2022-09-04T23:31:42.068Z,29.02522
2022-09-04T23:36:44.228Z,30.11642
2022-09-04T23:41:52.820Z,29.9702
2022-09-04T23:46:55.011Z,30.43906
2022-09-04T23:51:56.474Z,30.97771
2022-09-04T23:56:58.617Z,30.74802
